createdAt,value
2018-06-09T00:01:13.773Z,60.30
2018-06-09T00:03:46.537Z,60.10
2018-06-09T00:06:19.378Z,60.30
2018-06-09T00:08:52.669Z,60.60
2018-06-09T00:11:25.041Z,60.60
2018-06-09T00:13:57.448Z,60.70
2018-06-09T00:16:36.496Z,61.00
2018-06-09T00:19:09.352Z,61.00
2018-06-09T00:21:41.803Z,61.10
2018-06-09T00:24:14.182Z,61.10
2018-06-09T00:26:46.880Z,61.20
2018-06-09T00:29:20.637Z,61.40
2018-06-09T00:31:53.527Z,61.70
2018-06-09T00:34:26.868Z,61.70
2018-06-09T00:37:01.366Z,62.00
2018-06-09T00:39:35.003Z,62.20
2018-06-09T00:42:07.477Z,62.10
2018-06-09T00:44:39.917Z,62.40
2018-06-09T00:47:12.550Z,62.30
2018-06-09T00:49:45.341Z,62.10
2018-06-09T00:52:17.728Z,62.10
2018-06-09T00:54:50.137Z,62.20
2018-06-09T00:57:26.936Z,62.60
2018-06-09T00:59:59.621Z,62.50
2018-06-09T01:02:32.094Z,62.40
2018-06-09T01:05:04.829Z,62.40
2018-06-09T01:07:38.061Z,62.50
2018-06-09T01:10:11.281Z,62.60
2018-06-09T01:12:44.003Z,62.80
2018-06-09T01:15:16.559Z,62.90
2018-06-09T01:17:49.001Z,63.10
2018-06-09T01:22:54.517Z,63.80
2018-06-09T01:25:26.925Z,62.60
2018-06-09T01:30:32.119Z,63.50
2018-06-09T01:33:05.146Z,63.30
2018-06-09T01:35:37.534Z,63.40
2018-06-09T01:38:09.925Z,63.50
2018-06-09T01:40:42.566Z,63.40
2018-06-09T01:43:14.983Z,64.50
2018-06-09T01:45:47.370Z,63.80
2018-06-09T01:48:19.781Z,63.80
2018-06-09T01:50:52.751Z,63.90
2018-06-09T01:53:25.123Z,63.80
2018-06-09T01:55:57.567Z,63.80
2018-06-09T01:58:29.941Z,64.30
2018-06-09T02:01:02.416Z,64.30
2018-06-09T02:03:34.789Z,64.30
2018-06-09T02:06:07.181Z,64.40
2018-06-09T02:08:39.560Z,64.50
2018-06-09T02:11:12.286Z,64.70
2018-06-09T02:13:44.637Z,64.80
2018-06-09T02:16:17.049Z,64.90
2018-06-09T02:18:49.380Z,64.90
2018-06-09T02:23:54.249Z,66.20
2018-06-09T02:26:26.641Z,65.40
2018-06-09T02:28:59.052Z,65.60
2018-06-09T02:31:31.501Z,65.80
2018-06-09T02:34:03.871Z,66.00
2018-06-09T02:36:36.277Z,65.90
2018-06-09T02:39:08.681Z,65.90
2018-06-09T02:41:41.681Z,66.10
2018-06-09T02:44:14.150Z,66.30
2018-06-09T02:46:46.539Z,67.20
2018-06-09T02:49:18.924Z,66.50
2018-06-09T02:51:51.774Z,66.70
2018-06-09T02:54:24.160Z,67.00
2018-06-09T02:56:56.572Z,66.80
2018-06-09T02:59:28.965Z,66.90
2018-06-09T03:04:33.740Z,67.40
2018-06-09T03:07:06.143Z,67.40
2018-06-09T03:09:38.531Z,67.50
2018-06-09T03:12:12.552Z,67.70
2018-06-09T03:17:17.627Z,68.00
2018-06-09T03:19:50.315Z,68.00
2018-06-09T03:22:22.713Z,68.10
2018-06-09T03:24:55.174Z,68.40
2018-06-09T03:27:27.555Z,68.30
2018-06-09T03:29:59.971Z,68.50
2018-06-09T03:32:34.204Z,68.60
2018-06-09T03:35:06.687Z,68.50
2018-06-09T03:37:39.320Z,68.80
2018-06-09T03:40:11.714Z,68.80
2018-06-09T03:42:44.423Z,68.80
2018-06-09T03:45:16.974Z,68.80
2018-06-09T03:47:49.368Z,68.60
2018-06-09T03:50:21.838Z,68.80
2018-06-09T03:52:54.190Z,68.70
2018-06-09T03:55:26.890Z,69.40
2018-06-09T03:57:59.310Z,69.30
2018-06-09T04:00:31.723Z,68.90
2018-06-09T04:03:04.143Z,69.20
2018-06-09T04:05:36.542Z,69.20
2018-06-09T04:08:08.990Z,69.20
2018-06-09T04:10:41.400Z,69.40
2018-06-09T04:13:14.585Z,69.00
2018-06-09T04:18:19.636Z,69.00
2018-06-09T04:20:52.025Z,69.10
2018-06-09T04:23:24.452Z,68.90
2018-06-09T04:28:29.478Z,69.10
2018-06-09T04:31:01.842Z,68.70
2018-06-09T04:33:34.307Z,68.80
2018-06-09T04:36:06.672Z,68.70
2018-06-09T04:38:39.106Z,68.60
2018-06-09T04:41:11.533Z,68.40
2018-06-09T04:43:43.927Z,68.30
2018-06-09T04:46:16.304Z,68.00
2018-06-09T04:48:48.731Z,68.00
2018-06-09T04:51:21.148Z,68.10
2018-06-09T04:56:27.417Z,67.70
2018-06-09T04:58:59.779Z,67.60
2018-06-09T05:04:04.590Z,67.40
2018-06-09T05:06:37.086Z,66.00
2018-06-09T05:09:09.512Z,66.10
2018-06-09T05:11:41.875Z,65.90
2018-06-09T05:14:14.362Z,65.80
2018-06-09T05:16:46.772Z,65.90
2018-06-09T05:19:19.236Z,65.70
2018-06-09T05:21:51.618Z,64.90
2018-06-09T05:24:24.098Z,64.70
2018-06-09T05:26:56.483Z,65.20
2018-06-09T05:29:28.897Z,65.10
2018-06-09T05:34:35.125Z,64.70
2018-06-09T05:37:07.707Z,71.00
2018-06-09T05:39:40.343Z,64.60
2018-06-09T05:42:12.743Z,64.20
2018-06-09T05:44:45.901Z,64.00
2018-06-09T05:47:18.269Z,64.30
2018-06-09T05:49:50.691Z,64.50
2018-06-09T05:52:23.167Z,64.40
2018-06-09T05:54:55.701Z,64.50
2018-06-09T05:57:28.088Z,64.50
2018-06-09T06:00:00.848Z,64.40
2018-06-09T06:02:33.449Z,64.30
2018-06-09T06:05:05.919Z,63.50
2018-06-09T06:07:38.362Z,63.10
2018-06-09T06:10:10.842Z,62.60
2018-06-09T06:12:43.245Z,62.90
2018-06-09T06:15:15.761Z,61.70
2018-06-09T06:17:48.565Z,61.40
2018-06-09T06:20:20.969Z,61.60
2018-06-09T06:22:53.362Z,61.00
2018-06-09T06:25:25.799Z,60.60
2018-06-09T06:27:58.269Z,60.10
2018-06-09T06:30:30.624Z,59.60
2018-06-09T06:33:03.073Z,58.50
2018-06-09T06:35:35.565Z,57.90
2018-06-09T06:38:08.367Z,57.40
2018-06-09T06:40:40.765Z,57.30
2018-06-09T06:43:13.202Z,56.60
2018-06-09T06:45:45.644Z,56.40
2018-06-09T06:48:18.042Z,56.70
2018-06-09T06:50:51.008Z,56.70
2018-06-09T06:53:23.469Z,56.40
2018-06-09T06:55:56.762Z,55.80
2018-06-09T06:58:29.175Z,54.60
2018-06-09T07:01:01.563Z,54.80
2018-06-09T07:03:34.029Z,54.70
2018-06-09T07:06:06.404Z,54.80
2018-06-09T07:08:38.856Z,55.00
2018-06-09T07:11:11.296Z,54.70
2018-06-09T07:13:43.901Z,53.90
2018-06-09T07:16:16.424Z,53.40
2018-06-09T07:18:49.163Z,53.00
2018-06-09T07:21:21.624Z,53.50
2018-06-09T07:23:54.215Z,53.50
2018-06-09T07:26:26.629Z,53.00
2018-06-09T07:28:59.069Z,53.10
2018-06-09T07:31:31.611Z,52.70
2018-06-09T07:34:04.198Z,52.30
2018-06-09T07:36:36.638Z,52.10
2018-06-09T07:39:09.099Z,52.50
2018-06-09T07:41:41.596Z,51.40
2018-06-09T07:44:14.078Z,51.30
2018-06-09T07:46:46.536Z,51.20
2018-06-09T07:49:18.938Z,51.40
2018-06-09T07:51:51.361Z,51.30
2018-06-09T07:54:23.863Z,51.60
2018-06-09T07:56:56.357Z,51.20
2018-06-09T07:59:28.734Z,51.80
2018-06-09T08:02:01.324Z,50.90
2018-06-09T08:04:33.747Z,49.10
2018-06-09T08:07:06.151Z,48.80
2018-06-09T08:09:39.700Z,49.20
2018-06-09T08:12:12.147Z,48.70
2018-06-09T08:14:44.583Z,48.20
2018-06-09T08:17:17.069Z,48.10
2018-06-09T08:19:49.502Z,48.30
2018-06-09T08:22:21.944Z,48.00
2018-06-09T08:24:54.365Z,48.00
2018-06-09T08:27:27.090Z,48.50
2018-06-09T08:29:59.590Z,48.00
2018-06-09T08:32:32.059Z,47.30
2018-06-09T08:35:04.498Z,49.00
2018-06-09T08:37:40.056Z,50.30
2018-06-09T08:40:12.475Z,46.70
2018-06-09T08:42:44.905Z,45.60
2018-06-09T08:45:17.333Z,45.60
2018-06-09T08:47:49.890Z,45.00
2018-06-09T08:50:22.341Z,44.10
2018-06-09T08:52:55.187Z,43.70
2018-06-09T08:55:27.592Z,43.40
2018-06-09T08:58:00.142Z,43.30
2018-06-09T09:00:32.594Z,43.50
2018-06-09T09:03:05.134Z,43.40
2018-06-09T09:05:37.595Z,44.00
2018-06-09T09:08:17.403Z,44.40
2018-06-09T09:10:49.795Z,44.10
2018-06-09T09:13:22.242Z,44.20
2018-06-09T09:15:54.593Z,43.40
2018-06-09T09:18:27.109Z,42.80
2018-06-09T09:20:59.541Z,42.30
2018-06-09T09:23:31.927Z,42.60
2018-06-09T09:26:04.562Z,41.50
2018-06-09T09:28:37.295Z,41.30
2018-06-09T09:31:10.086Z,41.30
2018-06-09T09:33:42.447Z,42.90
2018-06-09T09:36:14.909Z,41.00
2018-06-09T09:38:50.842Z,40.90
2018-06-09T09:41:23.919Z,40.90
2018-06-09T09:43:56.295Z,39.90
2018-06-09T09:46:28.700Z,39.90
2018-06-09T09:49:01.127Z,39.60
2018-06-09T09:51:33.602Z,39.40
2018-06-09T09:54:06.411Z,39.00
2018-06-09T09:56:38.848Z,38.60
2018-06-09T09:59:11.369Z,39.00
2018-06-09T10:01:44.077Z,39.10
2018-06-09T10:04:16.990Z,38.90
2018-06-09T10:06:49.618Z,38.50
2018-06-09T10:11:55.238Z,36.50
2018-06-09T10:14:27.743Z,38.20
2018-06-09T10:17:00.960Z,36.70
2018-06-09T10:22:06.023Z,36.80
2018-06-09T10:24:38.423Z,36.50
2018-06-09T10:27:11.076Z,36.70
2018-06-09T10:29:43.543Z,36.40
2018-06-09T10:32:16.005Z,35.20
2018-06-09T10:34:48.424Z,35.10
2018-06-09T10:37:20.796Z,35.70
2018-06-09T10:39:53.271Z,35.60
2018-06-09T10:42:25.704Z,35.90
2018-06-09T10:44:58.974Z,36.10
2018-06-09T10:47:31.450Z,35.20
2018-06-09T10:50:03.981Z,34.50
2018-06-09T10:52:36.421Z,34.80
2018-06-09T10:55:08.843Z,35.40
2018-06-09T10:57:41.215Z,35.10
2018-06-09T11:00:14.907Z,34.40
2018-06-09T11:02:47.303Z,34.50
2018-06-09T11:05:19.743Z,34.20
2018-06-09T11:07:52.106Z,34.60
2018-06-09T11:10:24.662Z,35.00
2018-06-09T11:12:57.029Z,34.80
2018-06-09T11:15:29.586Z,34.40
2018-06-09T11:18:02.122Z,34.60
2018-06-09T11:20:34.827Z,34.70
2018-06-09T11:23:07.172Z,34.80
2018-06-09T11:25:39.769Z,34.50
2018-06-09T11:28:12.171Z,34.30
2018-06-09T11:30:44.682Z,33.90
2018-06-09T11:33:38.583Z,34.70
2018-06-09T11:36:12.220Z,34.10
2018-06-09T11:38:44.702Z,34.30
2018-06-09T11:41:17.855Z,33.60
2018-06-09T11:43:50.870Z,33.70
2018-06-09T11:48:55.906Z,32.90
2018-06-09T11:51:28.672Z,33.70
2018-06-09T11:54:01.150Z,33.60
2018-06-09T11:56:33.816Z,34.10
2018-06-09T11:59:06.431Z,33.80
2018-06-09T12:01:38.950Z,34.00
2018-06-09T12:04:11.613Z,33.00
2018-06-09T12:06:44.046Z,33.10
2018-06-09T12:09:16.586Z,33.30
2018-06-09T12:11:49.022Z,33.40
2018-06-09T12:14:21.487Z,33.50
2018-06-09T12:16:53.959Z,33.80
2018-06-09T12:19:26.436Z,33.60
2018-06-09T12:21:59.187Z,33.50
2018-06-09T12:24:31.633Z,34.00
2018-06-09T12:27:04.606Z,33.70
2018-06-09T12:29:37.022Z,32.60
2018-06-09T12:32:09.643Z,33.10
2018-06-09T12:34:42.255Z,34.70
2018-06-09T12:37:14.880Z,34.40
2018-06-09T12:39:47.273Z,34.40
2018-06-09T12:42:20.882Z,33.70
2018-06-09T12:44:53.746Z,33.80
2018-06-09T12:47:26.193Z,33.80
2018-06-09T12:49:59.062Z,34.20
2018-06-09T12:52:32.162Z,34.40
2018-06-09T12:55:04.613Z,34.80
2018-06-09T12:57:37.046Z,34.20
2018-06-09T13:00:09.492Z,34.80
2018-06-09T13:02:42.588Z,34.10
2018-06-09T13:05:15.024Z,34.10
2018-06-09T13:07:47.533Z,34.30
2018-06-09T13:10:20.360Z,33.90
2018-06-09T13:12:53.061Z,33.60
2018-06-09T13:15:25.522Z,33.70
2018-06-09T13:17:58.080Z,34.10
2018-06-09T13:20:30.505Z,33.80
2018-06-09T13:23:03.010Z,34.00
2018-06-09T13:25:35.806Z,34.20
2018-06-09T13:28:08.223Z,33.90
2018-06-09T13:30:40.743Z,33.80
2018-06-09T13:33:13.176Z,33.40
2018-06-09T13:35:45.625Z,33.70
2018-06-09T13:38:18.212Z,33.80
2018-06-09T13:40:50.744Z,34.40
2018-06-09T13:43:23.199Z,33.90
2018-06-09T13:45:55.686Z,33.90
2018-06-09T13:48:28.089Z,33.50
2018-06-09T13:51:00.631Z,34.00
2018-06-09T13:53:33.664Z,34.30
2018-06-09T13:56:06.340Z,34.10
2018-06-09T13:58:39.930Z,34.30
2018-06-09T14:01:12.485Z,33.80
2018-06-09T14:03:44.976Z,33.60
2018-06-09T14:06:17.794Z,33.60
2018-06-09T14:08:50.573Z,33.90
2018-06-09T14:11:23.507Z,34.20
2018-06-09T14:13:56.002Z,34.50
2018-06-09T14:16:28.443Z,34.20
2018-06-09T14:19:00.894Z,34.20
2018-06-09T14:21:33.322Z,34.20
2018-06-09T14:24:05.863Z,33.70
2018-06-09T14:26:38.365Z,33.30
2018-06-09T14:29:10.782Z,33.20
2018-06-09T14:31:43.192Z,33.40
2018-06-09T14:34:15.664Z,33.50
2018-06-09T14:36:48.057Z,33.70
2018-06-09T14:39:20.578Z,34.00
2018-06-09T14:41:54.541Z,34.10
2018-06-09T14:44:27.166Z,34.40
2018-06-09T14:47:02.043Z,34.30
2018-06-09T14:49:34.863Z,33.70
2018-06-09T14:52:07.798Z,34.00
2018-06-09T14:54:40.231Z,34.70
2018-06-09T14:57:13.628Z,34.60
2018-06-09T14:59:46.077Z,34.60
2018-06-09T15:02:19.532Z,35.10
2018-06-09T15:04:52.344Z,34.70
2018-06-09T15:07:24.934Z,35.00
2018-06-09T15:09:57.329Z,35.20
2018-06-09T15:12:29.831Z,34.70
2018-06-09T15:15:02.252Z,35.00
2018-06-09T15:17:34.693Z,34.90
2018-06-09T15:20:07.851Z,34.60
2018-06-09T15:22:40.411Z,34.20
2018-06-09T15:25:14.039Z,34.20
2018-06-09T15:27:47.610Z,34.10
2018-06-09T15:30:20.066Z,33.30
2018-06-09T15:32:53.078Z,33.60
2018-06-09T15:35:25.513Z,34.40
2018-06-09T15:37:57.946Z,34.20
2018-06-09T15:40:30.401Z,33.30
2018-06-09T15:43:02.886Z,32.80
2018-06-09T15:45:35.468Z,32.70
2018-06-09T15:48:07.889Z,32.70
2018-06-09T15:50:40.312Z,32.30
2018-06-09T15:53:12.733Z,32.50
2018-06-09T15:55:45.156Z,32.60
2018-06-09T15:58:17.620Z,33.30
2018-06-09T16:00:50.780Z,33.50
2018-06-09T16:03:23.698Z,34.20
2018-06-09T16:05:56.431Z,34.20
2018-06-09T16:08:28.901Z,33.50
2018-06-09T16:11:01.350Z,33.60
2018-06-09T16:13:33.796Z,33.40
2018-06-09T16:16:06.225Z,33.50
2018-06-09T16:18:38.720Z,33.40
2018-06-09T16:21:12.175Z,33.40
2018-06-09T16:23:44.611Z,33.50
2018-06-09T16:26:17.893Z,33.80
2018-06-09T16:28:50.343Z,33.90
2018-06-09T16:31:22.822Z,33.80
2018-06-09T16:33:55.303Z,33.80
2018-06-09T16:36:27.894Z,33.90
2018-06-09T16:39:00.319Z,34.20
2018-06-09T16:41:32.769Z,34.90
2018-06-09T16:44:05.187Z,35.20
2018-06-09T16:46:37.688Z,35.50
2018-06-09T16:49:10.227Z,35.50
2018-06-09T16:51:43.422Z,35.40
2018-06-09T16:54:15.804Z,35.40
2018-06-09T16:56:48.262Z,35.50
2018-06-09T17:01:53.191Z,35.30
2018-06-09T17:04:25.877Z,35.30
2018-06-09T17:06:59.458Z,35.20
2018-06-09T17:09:31.843Z,35.30
2018-06-09T17:12:04.555Z,35.60
2018-06-09T17:14:36.930Z,36.40
2018-06-09T17:17:09.494Z,36.50
2018-06-09T17:19:41.945Z,36.70
2018-06-09T17:22:14.445Z,36.70
2018-06-09T17:24:46.996Z,37.00
2018-06-09T17:27:19.531Z,37.50
2018-06-09T17:29:51.916Z,37.80
2018-06-09T17:32:24.369Z,37.90
2018-06-09T17:34:56.790Z,38.20
2018-06-09T17:37:29.248Z,38.30
2018-06-09T17:40:01.633Z,38.30
2018-06-09T17:42:34.180Z,38.20
2018-06-09T17:45:06.692Z,38.60
2018-06-09T17:47:39.142Z,38.70
2018-06-09T17:50:11.690Z,38.80
2018-06-09T17:52:44.543Z,39.10
2018-06-09T17:55:17.157Z,39.00
2018-06-09T17:57:49.826Z,39.60
2018-06-09T18:00:22.386Z,39.90
2018-06-09T18:02:58.910Z,40.30
2018-06-09T18:05:31.759Z,40.40
2018-06-09T18:08:04.394Z,40.50
2018-06-09T18:10:37.983Z,40.80
2018-06-09T18:13:10.539Z,41.00
2018-06-09T18:15:44.186Z,41.10
2018-06-09T18:18:16.679Z,41.60
2018-06-09T18:20:49.111Z,41.70
2018-06-09T18:23:22.098Z,41.90
2018-06-09T18:25:55.181Z,42.20
2018-06-09T18:28:28.814Z,43.10
2018-06-09T18:31:01.851Z,42.50
2018-06-09T18:33:34.303Z,42.80
2018-06-09T18:36:06.973Z,43.10
2018-06-09T18:38:41.534Z,43.40
2018-06-09T18:41:14.592Z,43.50
2018-06-09T18:43:47.391Z,47.20
2018-06-09T18:46:20.712Z,51.40
2018-06-09T18:48:55.971Z,52.60
2018-06-09T18:51:28.439Z,53.10
2018-06-09T18:54:01.039Z,54.70
2018-06-09T18:56:33.695Z,55.30
2018-06-09T18:59:06.150Z,56.00
2018-06-09T19:01:38.580Z,57.00
2018-06-09T19:04:10.996Z,57.30
2018-06-09T19:06:44.021Z,57.80
2018-06-09T19:09:18.061Z,57.80
2018-06-09T19:11:50.557Z,58.60
2018-06-09T19:14:23.545Z,58.30
2018-06-09T19:16:55.934Z,58.80
2018-06-09T19:19:28.613Z,58.80
2018-06-09T19:22:01.429Z,59.00
2018-06-09T19:24:34.163Z,59.30
2018-06-09T19:27:06.613Z,59.40
2018-06-09T19:29:39.143Z,59.90
2018-06-09T19:32:11.640Z,60.30
2018-06-09T19:34:44.464Z,61.00
2018-06-09T19:37:16.851Z,60.90
2018-06-09T19:39:49.230Z,61.60
2018-06-09T19:42:21.575Z,62.10
2018-06-09T19:44:54.347Z,62.30
2018-06-09T19:47:26.730Z,62.40
2018-06-09T19:49:59.494Z,61.90
2018-06-09T19:52:31.874Z,63.00
2018-06-09T19:55:04.376Z,62.40
2018-06-09T19:57:36.889Z,63.70
2018-06-09T20:00:09.346Z,63.80
2018-06-09T20:02:41.763Z,64.40
2018-06-09T20:05:14.187Z,64.80
2018-06-09T20:07:46.671Z,64.80
2018-06-09T20:10:19.145Z,64.70
2018-06-09T20:12:52.185Z,64.90
2018-06-09T20:15:24.730Z,64.90
2018-06-09T20:17:57.460Z,65.80
2018-06-09T20:20:29.906Z,66.00
2018-06-09T20:23:02.457Z,65.90
2018-06-09T20:25:34.946Z,66.30
2018-06-09T20:28:07.399Z,66.30
2018-06-09T20:30:39.963Z,66.40
2018-06-09T20:33:12.404Z,66.60
2018-06-09T20:35:44.821Z,66.70
2018-06-09T20:38:17.305Z,67.20
2018-06-09T20:40:49.903Z,67.30
2018-06-09T20:43:23.041Z,67.10
2018-06-09T20:45:55.713Z,67.50
2018-06-09T20:48:28.057Z,68.50
2018-06-09T20:51:00.543Z,68.00
2018-06-09T20:53:33.041Z,68.40
2018-06-09T20:56:05.470Z,68.60
2018-06-09T20:58:39.283Z,68.70
2018-06-09T21:01:12.022Z,69.00
2018-06-09T21:03:44.431Z,69.30
2018-06-09T21:06:16.905Z,69.50
2018-06-09T21:08:49.293Z,69.80
2018-06-09T21:11:22.107Z,69.80
2018-06-09T21:13:55.517Z,70.20
2018-06-09T21:16:27.923Z,70.40
2018-06-09T21:19:00.358Z,70.50
2018-06-09T21:21:32.775Z,70.60
2018-06-09T21:24:05.199Z,70.60
2018-06-09T21:26:43.439Z,70.90
2018-06-09T21:29:21.543Z,70.70
2018-06-09T21:31:54.311Z,71.00
2018-06-09T21:34:42.906Z,70.90
2018-06-09T21:37:17.308Z,71.10
2018-06-09T21:39:55.551Z,71.10
2018-06-09T21:42:32.978Z,71.20
2018-06-09T21:45:10.929Z,71.00
2018-06-09T21:47:43.521Z,71.20
2018-06-09T21:50:15.948Z,71.50
2018-06-09T21:52:49.671Z,71.20
2018-06-09T21:55:22.217Z,71.40
2018-06-09T21:57:54.646Z,71.30
2018-06-09T22:00:27.135Z,71.40
2018-06-09T22:02:59.616Z,71.60
2018-06-09T22:05:32.032Z,71.50
2018-06-09T22:08:04.524Z,71.40
2018-06-09T22:10:36.930Z,71.50
2018-06-09T22:13:09.378Z,71.30
2018-06-09T22:18:14.459Z,72.10
2018-06-09T22:20:47.024Z,72.40
2018-06-09T22:23:19.403Z,72.40
2018-06-09T22:25:57.514Z,72.20
2018-06-09T22:28:29.960Z,72.20
2018-06-09T22:31:02.679Z,72.30
2018-06-09T22:33:35.142Z,72.80
2018-06-09T22:36:07.578Z,72.70
2018-06-09T22:38:40.202Z,72.50
2018-06-09T22:41:12.612Z,72.30
2018-06-09T22:43:45.270Z,72.40
2018-06-09T22:46:17.634Z,72.30
2018-06-09T22:48:50.016Z,72.50
2018-06-09T22:51:22.524Z,72.50
2018-06-09T22:53:55.340Z,72.60
2018-06-09T22:56:27.775Z,72.70
2018-06-09T22:59:00.186Z,72.60
2018-06-09T23:01:32.544Z,72.80
2018-06-09T23:04:04.953Z,73.10
2018-06-09T23:06:37.358Z,73.30
2018-06-09T23:09:10.175Z,73.50
2018-06-09T23:11:42.555Z,73.50
2018-06-09T23:14:15.075Z,73.80
2018-06-09T23:16:47.527Z,74.00
2018-06-09T23:19:19.899Z,74.00
2018-06-09T23:21:52.291Z,74.40
2018-06-09T23:24:24.878Z,74.50
2018-06-09T23:26:57.304Z,74.70
2018-06-09T23:29:29.705Z,75.00
2018-06-09T23:32:02.293Z,75.20
2018-06-09T23:34:34.801Z,75.50
2018-06-09T23:37:07.202Z,75.60
2018-06-09T23:39:39.587Z,75.60
2018-06-09T23:42:12.015Z,75.80
2018-06-09T23:44:44.373Z,75.70
2018-06-09T23:47:16.804Z,76.00
2018-06-09T23:49:49.207Z,76.20
2018-06-09T23:52:21.595Z,76.40
2018-06-09T23:54:54.038Z,76.50
2018-06-09T23:57:26.503Z,76.60
2018-06-09T23:59:58.908Z,77.60
